Time;durP1;ratioP1;P1;durP2;ratioP2;P2;SDS_P1;SDS_P2;PMS_P1;PMS_P2;Temp;Humidity;BMP_temperature;BMP_pressure;BME280_temperature;BME280_humidity;BME280_pressure;Samples;Min_cycle;Max_cycle;Signal;HPM_P1;HPM_P2
2022/06/10 00:39:57;;;;;;;5.40;2.60;;;;;;;;;;6238063;22;20206;-83
2022/06/10 00:43:02;;;;;;;5.47;2.65;;;;;;;;;;6252463;23;20175;-86
2022/06/10 00:46:15;;;;;;;4.68;2.53;;;;;;;;;;6233694;23;20294;-84
2022/06/10 00:49:20;;;;;;;4.53;2.55;;;;;;;;;;6233804;23;20531;-84
2022/06/10 00:52:29;;;;;;;7.90;2.78;;;;;;;;;;6252619;23;20174;-84
2022/06/10 00:55:36;;;;;;;6.95;3.05;;;;;;;;;;6252336;23;20531;-85
2022/06/10 00:58:46;;;;;;;7.15;2.88;;;;;;;;;;6250609;23;20170;-85
2022/06/10 01:01:52;;;;;;;7.75;2.70;;;;;;;;;;6240181;23;20253;-83
2022/06/10 01:04:57;;;;;;;8.40;2.85;;;;;;;;;;6236228;23;20178;-84
2022/06/10 01:08:03;;;;;;;9.50;2.78;;;;;;;;;;6255311;23;20413;-83
2022/06/10 01:11:15;;;;;;;3.65;2.15;;;;;;;;;;6257175;23;20170;-81
2022/06/10 01:14:29;;;;;;;5.00;2.65;;;;;;;;;;6237433;23;20241;-82
2022/06/10 01:17:39;;;;;;;8.90;2.80;;;;;;;;;;6235869;23;20174;-81
2022/06/10 01:20:51;;;;;;;6.78;2.88;;;;;;;;;;6259254;23;20270;-82
2022/06/10 01:24:14;;;;;;;7.22;3.17;;;;;;;;;;6241096;23;20244;-83
2022/06/10 01:27:49;;;;;;;4.35;2.63;;;;;;;;;;6232098;23;20202;-83
2022/06/10 01:31:15;;;;;;;8.07;2.90;;;;;;;;;;6231561;23;20174;-82
2022/06/10 01:34:28;;;;;;;8.57;2.70;;;;;;;;;;6232128;23;20203;-85
2022/06/10 01:37:37;;;;;;;7.70;2.35;;;;;;;;;;6249819;23;20177;-83
2022/06/10 01:40:47;;;;;;;13.05;3.55;;;;;;;;;;6234146;23;20432;-82
2022/06/10 01:44:01;;;;;;;6.90;2.67;;;;;;;;;;6250135;23;20182;-83
2022/06/10 01:47:08;;;;;;;12.88;2.67;;;;;;;;;;6231414;23;20619;-83
2022/06/10 01:50:18;;;;;;;11.15;2.83;;;;;;;;;;6250061;23;20170;-83
2022/06/10 01:53:27;;;;;;;4.50;3.17;;;;;;;;;;6250049;23;20177;-83
2022/06/10 01:56:35;;;;;;;7.75;2.50;;;;;;;;;;6231310;23;20534;-83
2022/06/10 01:59:44;;;;;;;4.30;2.25;;;;;;;;;;6249792;23;20198;-83
2022/06/10 02:02:52;;;;;;;6.20;2.38;;;;;;;;;;6231502;23;20174;-83
2022/06/10 02:06:01;;;;;;;9.05;2.20;;;;;;;;;;6230870;23;20174;-83
2022/06/10 02:09:08;;;;;;;8.48;2.40;;;;;;;;;;6231491;23;20206;-83
2022/06/10 02:12:16;;;;;;;8.65;2.80;;;;;;;;;;6231515;23;20285;-83
2022/06/10 02:15:24;;;;;;;8.77;2.70;;;;;;;;;;6230708;23;20518;-83
2022/06/10 02:18:31;;;;;;;8.13;2.60;;;;;;;;;;6231993;23;20530;-83
2022/06/10 02:21:40;;;;;;;7.38;2.45;;;;;;;;;;6249494;23;20625;-83
2022/06/10 02:24:47;;;;;;;11.00;2.50;;;;;;;;;;6231414;23;20183;-83
2022/06/10 02:27:55;;;;;;;6.13;3.13;;;;;;;;;;6249259;23;20173;-83
2022/06/10 02:31:01;;;;;;;6.55;2.58;;;;;;;;;;6231316;23;20177;-83
2022/06/10 02:34:07;;;;;;;9.60;2.65;;;;;;;;;;6231132;23;20514;-83
2022/06/10 02:37:18;;;;;;;7.53;2.13;;;;;;;;;;6249233;23;20209;-83
2022/06/10 02:40:28;;;;;;;6.68;2.30;;;;;;;;;;6231046;23;20536;-83
2022/06/10 02:43:37;;;;;;;8.27;2.38;;;;;;;;;;6233007;23;20174;-83
2022/06/10 02:46:49;;;;;;;9.38;2.50;;;;;;;;;;6232466;23;20290;-83
2022/06/10 02:49:54;;;;;;;6.70;2.47;;;;;;;;;;6233018;23;20435;-84
2022/06/10 02:53:01;;;;;;;5.30;2.90;;;;;;;;;;6233558;23;20225;-84
2022/06/10 02:56:15;;;;;;;13.60;3.03;;;;;;;;;;6250773;23;20166;-84
2022/06/10 03:02:50;;;;;;;10.55;2.90;;;;;;;;;;6233473;23;20170;-84
2022/06/10 03:06:00;;;;;;;9.02;2.95;;;;;;;;;;6250423;23;20269;-84
2022/06/10 03:09:10;;;;;;;6.82;2.50;;;;;;;;;;6232992;23;20285;-84
2022/06/10 03:12:21;;;;;;;8.07;2.30;;;;;;;;;;6251396;23;20194;-84
2022/06/10 03:15:33;;;;;;;6.70;3.10;;;;;;;;;;6250835;23;20170;-84
2022/06/10 03:18:43;;;;;;;13.77;3.15;;;;;;;;;;6233351;23;20170;-84
2022/06/10 03:21:55;;;;;;;8.10;2.47;;;;;;;;;;6255214;23;20198;-84
2022/06/10 03:25:08;;;;;;;6.93;2.38;;;;;;;;;;6232786;23;20422;-84
2022/06/10 03:28:14;;;;;;;8.18;2.80;;;;;;;;;;6232967;23;20274;-84
2022/06/10 03:31:21;;;;;;;9.55;2.65;;;;;;;;;;6251434;23;20171;-83
2022/06/10 03:34:29;;;;;;;5.13;2.25;;;;;;;;;;6251778;23;20239;-84
2022/06/10 03:37:36;;;;;;;13.23;2.67;;;;;;;;;;6250995;23;20233;-83
2022/06/10 03:40:45;;;;;;;4.65;2.63;;;;;;;;;;6251129;23;20543;-84
2022/06/10 03:43:51;;;;;;;14.30;2.65;;;;;;;;;;6251616;23;20298;-84
2022/06/10 03:46:57;;;;;;;11.70;2.72;;;;;;;;;;6250240;23;20178;-84
2022/06/10 03:50:05;;;;;;;7.03;2.10;;;;;;;;;;6250962;23;20286;-83
2022/06/10 03:53:16;;;;;;;6.68;2.42;;;;;;;;;;6250556;23;20221;-84
2022/06/10 03:56:23;;;;;;;5.28;2.58;;;;;;;;;;6250242;23;20166;-83
2022/06/10 03:59:28;;;;;;;10.82;2.58;;;;;;;;;;6251138;23;20186;-84
2022/06/10 04:02:37;;;;;;;5.15;2.35;;;;;;;;;;6249591;23;20185;-84
2022/06/10 04:05:42;;;;;;;7.45;2.97;;;;;;;;;;6249953;23;20209;-84
2022/06/10 04:08:47;;;;;;;7.45;2.75;;;;;;;;;;6232779;23;20274;-84
2022/06/10 04:11:53;;;;;;;6.60;2.20;;;;;;;;;;6251220;23;20187;-84
2022/06/10 04:14:58;;;;;;;6.47;2.42;;;;;;;;;;6249834;23;20194;-84
2022/06/10 04:18:05;;;;;;;4.60;2.55;;;;;;;;;;6232441;23;20212;-84
2022/06/10 04:21:11;;;;;;;4.43;2.15;;;;;;;;;;6250684;23;20471;-84
2022/06/10 04:24:16;;;;;;;5.78;2.50;;;;;;;;;;6232757;23;20174;-84
2022/06/10 04:27:22;;;;;;;6.80;2.38;;;;;;;;;;6232407;23;20252;-84
2022/06/10 04:30:29;;;;;;;11.07;2.55;;;;;;;;;;6232740;23;20254;-83
2022/06/10 04:33:35;;;;;;;8.40;2.60;;;;;;;;;;6232712;23;20247;-83
2022/06/10 04:36:40;;;;;;;5.32;2.53;;;;;;;;;;6231488;23;20285;-84
2022/06/10 04:39:45;;;;;;;4.53;2.10;;;;;;;;;;6232246;23;20197;-84
2022/06/10 04:42:52;;;;;;;11.18;2.55;;;;;;;;;;6250796;23;20297;-84
2022/06/10 04:45:58;;;;;;;8.32;2.85;;;;;;;;;;6232146;23;20170;-84
2022/06/10 04:49:03;;;;;;;8.00;2.63;;;;;;;;;;6232576;23;20391;-85
2022/06/10 04:52:08;;;;;;;5.30;2.58;;;;;;;;;;6232478;23;20262;-83
2022/06/10 04:55:13;;;;;;;6.28;2.40;;;;;;;;;;6250010;23;20292;-84
2022/06/10 04:58:20;;;;;;;4.82;2.38;;;;;;;;;;6232336;23;20294;-84
2022/06/10 05:01:26;;;;;;;12.40;2.75;;;;;;;;;;6251363;23;20365;-84
2022/06/10 05:04:32;;;;;;;10.48;2.50;;;;;;;;;;6234305;23;20178;-84
2022/06/10 05:07:37;;;;;;;10.98;2.78;;;;;;;;;;6231882;23;20531;-84
2022/06/10 05:10:43;;;;;;;9.75;3.85;;;;;;;;;;6250603;23;20519;-84
2022/06/10 05:13:49;;;;;;;8.18;3.10;;;;;;;;;;6232023;23;20179;-83
2022/06/10 05:16:56;;;;;;;6.07;2.70;;;;;;;;;;6230958;23;20582;-84
2022/06/10 05:20:01;;;;;;;4.38;2.38;;;;;;;;;;6230470;23;20205;-84
2022/06/10 05:23:06;;;;;;;10.63;3.28;;;;;;;;;;6231954;23;20186;-84
2022/06/10 05:26:10;;;;;;;8.23;2.55;;;;;;;;;;6231274;22;20210;-84
2022/06/10 05:29:17;;;;;;;9.48;2.83;;;;;;;;;;6232174;23;20174;-84
2022/06/10 05:32:22;;;;;;;7.95;2.90;;;;;;;;;;6231983;23;20282;-84
2022/06/10 05:35:28;;;;;;;8.18;2.53;;;;;;;;;;6231756;23;20183;-84
2022/06/10 05:38:33;;;;;;;5.20;2.63;;;;;;;;;;6232731;23;20171;-84
2022/06/10 05:45:02;;;;;;;5.95;2.65;;;;;;;;;;6249912;23;20190;-84
2022/06/10 05:48:07;;;;;;;7.22;2.90;;;;;;;;;;6250276;23;20556;-84
2022/06/10 05:51:12;;;;;;;18.48;3.35;;;;;;;;;;6231398;23;20170;-84
2022/06/10 05:54:18;;;;;;;7.68;3.08;;;;;;;;;;6232003;23;20392;-85
2022/06/10 05:57:23;;;;;;;8.13;2.60;;;;;;;;;;6231121;23;20220;-84
2022/06/10 06:00:31;;;;;;;8.65;2.45;;;;;;;;;;6250012;23;20500;-85
2022/06/10 06:03:36;;;;;;;12.45;2.97;;;;;;;;;;6250838;23;20177;-85
2022/06/10 06:06:42;;;;;;;6.80;3.03;;;;;;;;;;6231639;23;20202;-84
2022/06/10 06:09:47;;;;;;;8.85;3.08;;;;;;;;;;6250453;23;20240;-85
2022/06/10 06:12:51;;;;;;;8.70;3.10;;;;;;;;;;6231710;23;20585;-85
2022/06/10 06:15:58;;;;;;;13.82;3.03;;;;;;;;;;6231403;23;20190;-85
2022/06/10 06:19:03;;;;;;;8.40;3.60;;;;;;;;;;6250685;23;20174;-85
2022/06/10 06:22:08;;;;;;;13.95;3.38;;;;;;;;;;6232009;23;20198;-85
2022/06/10 06:25:15;;;;;;;6.47;3.20;;;;;;;;;;6231378;23;20166;-85
2022/06/10 06:28:20;;;;;;;7.40;2.97;;;;;;;;;;6251032;23;20186;-84
2022/06/10 06:31:27;;;;;;;6.40;3.05;;;;;;;;;;6234320;23;20454;-85
2022/06/10 06:34:32;;;;;;;12.20;3.88;;;;;;;;;;6252428;23;20169;-85
2022/06/10 06:37:37;;;;;;;6.68;2.75;;;;;;;;;;6251335;23;20237;-85
2022/06/10 06:40:43;;;;;;;8.47;2.63;;;;;;;;;;6232601;23;20293;-85
2022/06/10 06:43:47;;;;;;;8.80;2.97;;;;;;;;;;6233632;23;20174;-85
2022/06/10 06:46:54;;;;;;;7.30;3.13;;;;;;;;;;6250870;23;20186;-85
2022/06/10 06:49:59;;;;;;;6.18;2.90;;;;;;;;;;6250946;23;20218;-86
2022/06/10 06:53:05;;;;;;;8.88;3.03;;;;;;;;;;6250709;23;20225;-86
2022/06/10 06:56:14;;;;;;;6.57;2.88;;;;;;;;;;6250342;23;20209;-86
2022/06/10 06:59:19;;;;;;;10.73;3.50;;;;;;;;;;6231996;23;20538;-86
2022/06/10 07:02:26;;;;;;;8.20;2.50;;;;;;;;;;6251022;23;20622;-85
2022/06/10 07:05:31;;;;;;;6.43;2.40;;;;;;;;;;6236976;23;20191;-86
2022/06/10 07:08:37;;;;;;;10.18;3.05;;;;;;;;;;6238964;23;20275;-84
2022/06/10 07:11:42;;;;;;;7.57;3.33;;;;;;;;;;6240479;23;20237;-83
2022/06/10 07:14:49;;;;;;;6.40;3.10;;;;;;;;;;6237479;23;20253;-86
2022/06/10 07:17:56;;;;;;;8.07;3.45;;;;;;;;;;6255509;23;20170;-84
2022/06/10 07:21:02;;;;;;;8.00;2.85;;;;;;;;;;6233500;23;20527;-85
2022/06/10 07:24:07;;;;;;;6.40;3.10;;;;;;;;;;6234821;23;20178;-85
2022/06/10 07:27:13;;;;;;;8.98;2.67;;;;;;;;;;6253356;22;20434;-85
2022/06/10 07:30:19;;;;;;;8.27;2.90;;;;;;;;;;6237435;23;20513;-84
2022/06/10 07:33:26;;;;;;;5.78;3.22;;;;;;;;;;6234035;23;20167;-85
2022/06/10 07:36:30;;;;;;;5.40;2.92;;;;;;;;;;6253995;23;20166;-86
2022/06/10 07:39:36;;;;;;;6.88;3.00;;;;;;;;;;6251683;23;20198;-85
2022/06/10 07:42:39;;;;;;;7.40;3.20;;;;;;;;;;6251597;23;20604;-85
2022/06/10 07:45:44;;;;;;;6.90;3.08;;;;;;;;;;6233240;23;20553;-85
2022/06/10 07:48:52;;;;;;;6.22;2.75;;;;;;;;;;6252467;23;20285;-85
2022/06/10 07:51:57;;;;;;;4.85;2.95;;;;;;;;;;6251235;23;20173;-85
2022/06/10 07:55:02;;;;;;;6.07;3.05;;;;;;;;;;6251376;23;20421;-85
2022/06/10 07:58:09;;;;;;;5.28;2.97;;;;;;;;;;6233031;23;20210;-86
2022/06/10 08:01:14;;;;;;;8.43;3.30;;;;;;;;;;6233094;23;20197;-85
2022/06/10 08:04:20;;;;;;;5.63;2.72;;;;;;;;;;6250858;23;20178;-85
2022/06/10 08:07:25;;;;;;;6.18;3.20;;;;;;;;;;6250676;23;20179;-85
2022/06/10 08:10:31;;;;;;;7.57;3.60;;;;;;;;;;6251229;23;20221;-86
2022/06/10 08:13:36;;;;;;;6.43;3.28;;;;;;;;;;6232411;23;20174;-86
2022/06/10 08:16:42;;;;;;;5.20;2.72;;;;;;;;;;6232138;23;20245;-86
2022/06/10 08:19:49;;;;;;;7.93;3.35;;;;;;;;;;6232700;23;20244;-86
2022/06/10 08:22:53;;;;;;;4.10;2.97;;;;;;;;;;6250743;23;20480;-85
2022/06/10 08:25:59;;;;;;;11.13;2.92;;;;;;;;;;6236076;22;20266;-85
2022/06/10 08:29:04;;;;;;;7.28;2.75;;;;;;;;;;6251498;23;20530;-86
2022/06/10 08:32:10;;;;;;;8.65;3.67;;;;;;;;;;6232457;23;20205;-86
2022/06/10 08:35:17;;;;;;;6.40;2.70;;;;;;;;;;6232157;23;20174;-85
2022/06/10 08:38:22;;;;;;;5.28;2.90;;;;;;;;;;6233526;23;20166;-87
2022/06/10 08:41:29;;;;;;;4.88;2.58;;;;;;;;;;6233065;23;20175;-86
2022/06/10 08:44:37;;;;;;;6.70;2.85;;;;;;;;;;6250698;23;20287;-85
2022/06/10 08:47:49;;;;;;;6.72;2.80;;;;;;;;;;6233498;23;20182;-87
2022/06/10 08:51:06;;;;;;;7.40;2.72;;;;;;;;;;6232947;23;20185;-86
2022/06/10 08:54:15;;;;;;;9.32;5.20;;;;;;;;;;6252135;23;20294;-86
2022/06/10 08:57:25;;;;;;;5.70;2.75;;;;;;;;;;6250993;23;20170;-85
2022/06/10 09:00:32;;;;;;;6.25;2.50;;;;;;;;;;6230385;23;20174;-86
2022/06/10 09:03:40;;;;;;;4.75;2.53;;;;;;;;;;6230698;23;20646;-86
2022/06/10 09:06:51;;;;;;;7.72;2.70;;;;;;;;;;6250383;23;20194;-86
2022/06/10 09:09:59;;;;;;;6.80;2.65;;;;;;;;;;6251024;23;20170;-84
2022/06/10 09:13:11;;;;;;;5.00;3.03;;;;;;;;;;6232055;23;20167;-85
2022/06/10 09:16:18;;;;;;;11.05;2.88;;;;;;;;;;6249951;23;20411;-84
2022/06/10 09:19:36;;;;;;;7.80;2.75;;;;;;;;;;6233367;23;20170;-84
2022/06/10 09:22:48;;;;;;;7.93;2.72;;;;;;;;;;6232262;23;20189;-84
2022/06/10 09:25:55;;;;;;;4.22;2.50;;;;;;;;;;6232883;22;20254;-86
2022/06/10 09:29:01;;;;;;;5.43;2.70;;;;;;;;;;6232793;23;20170;-86
2022/06/10 09:32:10;;;;;;;6.65;2.75;;;;;;;;;;6250442;23;20174;-85
2022/06/10 09:35:20;;;;;;;9.43;2.92;;;;;;;;;;6234327;23;20252;-85
2022/06/10 09:38:33;;;;;;;5.32;2.45;;;;;;;;;;6250468;23;20177;-85
2022/06/10 09:41:45;;;;;;;5.57;2.55;;;;;;;;;;6233622;23;20298;-84
2022/06/10 09:44:54;;;;;;;7.65;3.58;;;;;;;;;;6232328;23;20177;-85
2022/06/10 09:48:05;;;;;;;6.25;2.97;;;;;;;;;;6231358;23;20232;-85
2022/06/10 09:51:12;;;;;;;8.95;3.33;;;;;;;;;;6249909;23;20186;-86
2022/06/10 09:54:29;;;;;;;4.75;3.28;;;;;;;;;;6232304;23;20173;-85
2022/06/10 09:57:41;;;;;;;7.60;2.78;;;;;;;;;;6249866;23;20266;-86
2022/06/10 10:00:52;;;;;;;5.65;3.15;;;;;;;;;;6231508;23;20174;-85
2022/06/10 10:04:11;;;;;;;4.05;2.80;;;;;;;;;;6232407;23;20281;-83
2022/06/10 10:07:21;;;;;;;8.63;3.60;;;;;;;;;;6254222;23;20194;-84
2022/06/10 10:10:31;;;;;;;5.82;2.85;;;;;;;;;;6232954;23;20475;-86
2022/06/10 10:13:57;;;;;;;6.07;2.85;;;;;;;;;;6232099;23;20209;-86
2022/06/10 10:17:09;;;;;;;7.95;3.10;;;;;;;;;;6231930;23;20518;-85
2022/06/10 10:20:18;;;;;;;6.50;3.05;;;;;;;;;;6232165;23;20175;-84
2022/06/10 10:23:27;;;;;;;7.97;3.22;;;;;;;;;;6248791;23;20198;-85
2022/06/10 10:26:35;;;;;;;8.57;3.10;;;;;;;;;;6230032;23;20237;-85
2022/06/10 10:29:43;;;;;;;6.00;2.90;;;;;;;;;;6249977;23;20175;-85
2022/06/10 10:32:52;;;;;;;6.10;2.90;;;;;;;;;;6246155;23;20484;-85
2022/06/10 10:35:58;;;;;;;10.65;3.28;;;;;;;;;;6249540;23;20218;-84
2022/06/10 10:39:15;;;;;;;5.78;2.90;;;;;;;;;;6232316;23;20225;-85
2022/06/10 10:42:23;;;;;;;7.28;3.15;;;;;;;;;;6232758;23;20193;-84
2022/06/10 10:45:31;;;;;;;5.75;3.03;;;;;;;;;;6248991;23;20228;-85
2022/06/10 10:48:38;;;;;;;5.80;3.08;;;;;;;;;;6231564;23;20236;-85
2022/06/10 10:51:44;;;;;;;4.82;2.55;;;;;;;;;;6251515;23;20170;-86
2022/06/10 10:54:52;;;;;;;7.35;2.60;;;;;;;;;;6250208;23;20174;-86
2022/06/10 10:58:07;;;;;;;4.40;2.55;;;;;;;;;;6228599;23;20346;-85
2022/06/10 11:01:43;;;;;;;5.40;2.50;;;;;;;;;;6249655;23;20178;-85
2022/06/10 11:04:40;;;;;;;7.93;2.80;;;;;;;;;;6254372;23;20175;-85
2022/06/10 11:07:46;;;;;;;10.30;2.90;;;;;;;;;;6251759;22;20202;-85
2022/06/10 11:10:55;;;;;;;8.65;3.47;;;;;;;;;;6252181;23;20395;-85
2022/06/10 11:14:03;;;;;;;5.97;3.00;;;;;;;;;;6252628;23;20170;-85
2022/06/10 11:17:16;;;;;;;6.70;3.92;;;;;;;;;;6237780;23;20182;-85
2022/06/10 11:20:25;;;;;;;8.27;3.70;;;;;;;;;;6241618;23;20166;-84
2022/06/10 11:23:30;;;;;;;8.18;3.63;;;;;;;;;;6238721;23;20257;-84
2022/06/10 11:26:35;;;;;;;9.95;4.40;;;;;;;;;;6258145;23;20198;-84
2022/06/10 11:29:43;;;;;;;6.07;3.95;;;;;;;;;;6258320;23;20423;-83
2022/06/10 11:32:58;;;;;;;5.88;3.58;;;;;;;;;;6257967;23;20543;-84
2022/06/10 11:36:11;;;;;;;5.32;4.03;;;;;;;;;;6243472;23;20542;-85
2022/06/10 11:39:19;;;;;;;8.02;3.90;;;;;;;;;;6237393;23;20252;-84
2022/06/10 11:42:28;;;;;;;6.25;4.28;;;;;;;;;;6238211;23;20523;-85
2022/06/10 11:45:39;;;;;;;9.40;4.53;;;;;;;;;;6232663;23;20258;-83
2022/06/10 11:48:47;;;;;;;11.82;5.50;;;;;;;;;;6239766;23;20178;-84
2022/06/10 11:51:55;;;;;;;11.63;5.00;;;;;;;;;;6241517;23;20173;-84
2022/06/10 11:55:05;;;;;;;11.60;4.80;;;;;;;;;;6233055;23;20413;-83
2022/06/10 12:01:47;;;;;;;9.07;5.95;;;;;;;;;;6251424;23;20238;-83
2022/06/10 12:04:57;;;;;;;12.10;5.20;;;;;;;;;;6250847;23;20542;-83
2022/06/10 12:08:07;;;;;;;11.68;5.63;;;;;;;;;;6233841;23;20278;-85
2022/06/10 12:11:24;;;;;;;11.20;5.32;;;;;;;;;;6232384;23;20246;-85
2022/06/10 12:14:31;;;;;;;8.98;4.85;;;;;;;;;;6231974;23;20387;-85
2022/06/10 12:17:40;;;;;;;9.02;4.63;;;;;;;;;;6232293;23;20174;-84
2022/06/10 12:20:47;;;;;;;12.27;4.88;;;;;;;;;;6232782;23;20224;-85
2022/06/10 12:23:52;;;;;;;10.23;5.53;;;;;;;;;;6232710;23;20738;-86
2022/06/10 12:26:59;;;;;;;11.40;6.32;;;;;;;;;;6230253;23;20186;-85
2022/06/10 12:30:07;;;;;;;10.55;5.68;;;;;;;;;;6251287;23;20216;-87
2022/06/10 12:33:17;;;;;;;12.88;5.72;;;;;;;;;;6233103;23;20162;-84
2022/06/10 12:36:26;;;;;;;12.63;5.70;;;;;;;;;;6239825;23;20258;-85
2022/06/10 12:39:47;;;;;;;12.13;6.07;;;;;;;;;;6231936;23;20546;-86
2022/06/10 12:42:54;;;;;;;11.98;5.78;;;;;;;;;;6231812;23;20191;-86
2022/06/10 12:46:02;;;;;;;11.90;5.60;;;;;;;;;;6231359;23;20470;-87
2022/06/10 12:49:11;;;;;;;10.82;5.28;;;;;;;;;;6233189;23;20570;-87
2022/06/10 12:52:24;;;;;;;8.00;4.75;;;;;;;;;;6232562;23;20630;-87
2022/06/10 12:55:33;;;;;;;9.73;5.70;;;;;;;;;;6231770;23;20178;-87
2022/06/10 12:58:43;;;;;;;10.00;5.97;;;;;;;;;;6250245;23;20179;-87
2022/06/10 13:01:49;;;;;;;9.13;5.93;;;;;;;;;;6232863;23;20515;-87
2022/06/10 13:04:57;;;;;;;8.98;5.57;;;;;;;;;;6232884;23;20170;-86
2022/06/10 13:08:02;;;;;;;8.40;4.50;;;;;;;;;;6251234;23;20278;-86
2022/06/10 13:11:09;;;;;;;10.57;4.80;;;;;;;;;;6233793;23;20185;-88
2022/06/10 13:14:20;;;;;;;9.70;4.55;;;;;;;;;;6232226;23;20280;-88
2022/06/10 13:17:27;;;;;;;9.82;5.35;;;;;;;;;;6232805;23;20175;-88
2022/06/10 13:20:39;;;;;;;9.60;4.95;;;;;;;;;;6231984;23;20186;-87
2022/06/10 13:23:52;;;;;;;8.70;4.40;;;;;;;;;;6235154;23;20194;-87
2022/06/10 13:26:57;;;;;;;14.48;4.60;;;;;;;;;;6249798;23;20232;-87
2022/06/10 13:30:03;;;;;;;9.27;3.67;;;;;;;;;;6238682;23;20197;-88
2022/06/10 13:33:09;;;;;;;10.38;4.53;;;;;;;;;;6251033;23;20337;-88
2022/06/10 13:36:15;;;;;;;5.50;3.03;;;;;;;;;;6231330;23;20404;-88
2022/06/10 13:39:27;;;;;;;9.38;3.90;;;;;;;;;;6232677;23;20197;-87
2022/06/10 13:42:33;;;;;;;6.50;3.67;;;;;;;;;;6252515;23;20190;-86
2022/06/10 13:45:41;;;;;;;10.20;3.95;;;;;;;;;;6235407;23;20170;-86
2022/06/10 13:48:47;;;;;;;7.15;3.90;;;;;;;;;;6236818;23;20181;-87
2022/06/10 13:51:55;;;;;;;10.68;4.18;;;;;;;;;;6236209;23;20189;-86
2022/06/10 13:55:15;;;;;;;5.97;3.50;;;;;;;;;;6235983;23;20179;-87
2022/06/10 13:58:22;;;;;;;6.28;3.65;;;;;;;;;;6234864;23;20202;-87
2022/06/10 14:01:28;;;;;;;5.50;3.80;;;;;;;;;;6235043;23;20376;-85
2022/06/10 14:04:35;;;;;;;6.63;3.97;;;;;;;;;;6235476;23;20625;-88
2022/06/10 14:07:45;;;;;;;14.27;4.00;;;;;;;;;;6235796;23;20209;-88
2022/06/10 14:10:50;;;;;;;5.88;3.08;;;;;;;;;;6235977;23;20178;-87
2022/06/10 14:13:56;;;;;;;7.07;3.30;;;;;;;;;;6252919;23;20182;-87
2022/06/10 14:17:03;;;;;;;6.82;3.30;;;;;;;;;;6233419;23;20249;-86
2022/06/10 14:20:08;;;;;;;4.45;3.22;;;;;;;;;;6250591;23;20205;-87
2022/06/10 14:23:25;;;;;;;6.45;3.42;;;;;;;;;;6231480;23;20193;-84
2022/06/10 14:26:32;;;;;;;7.00;3.15;;;;;;;;;;6230784;23;20190;-87
2022/06/10 14:29:42;;;;;;;4.93;2.92;;;;;;;;;;6231742;23;20511;-87
2022/06/10 14:32:57;;;;;;;7.82;3.10;;;;;;;;;;6230501;23;20166;-87
2022/06/10 14:36:13;;;;;;;7.95;3.45;;;;;;;;;;6230631;23;20171;-87
2022/06/10 14:39:23;;;;;;;5.60;2.83;;;;;;;;;;6250328;23;20190;-85
2022/06/10 14:42:28;;;;;;;8.20;3.05;;;;;;;;;;6231684;23;20293;-87
2022/06/10 14:45:36;;;;;;;8.20;2.80;;;;;;;;;;6231971;23;20290;-87
2022/06/10 14:48:42;;;;;;;8.05;2.90;;;;;;;;;;6231624;23;20415;-87
2022/06/10 14:51:47;;;;;;;6.10;3.25;;;;;;;;;;6251217;23;20189;-88
2022/06/10 14:54:55;;;;;;;6.40;2.83;;;;;;;;;;6230365;23;20249;-87
2022/06/10 14:58:01;;;;;;;6.45;3.50;;;;;;;;;;6231941;23;20189;-87
2022/06/10 15:01:06;;;;;;;4.95;2.97;;;;;;;;;;6230234;23;20504;-87
2022/06/10 15:04:11;;;;;;;8.00;3.10;;;;;;;;;;6248869;23;20317;-87
2022/06/10 15:07:16;;;;;;;6.88;3.15;;;;;;;;;;6230407;23;20242;-88
2022/06/10 15:10:23;;;;;;;4.15;2.85;;;;;;;;;;6233418;23;20193;-88
2022/06/10 15:13:30;;;;;;;8.00;2.97;;;;;;;;;;6234464;23;20201;-87
2022/06/10 15:16:37;;;;;;;9.40;2.75;;;;;;;;;;6230897;23;20174;-86
2022/06/10 15:19:42;;;;;;;5.80;3.10;;;;;;;;;;6229954;23;20174;-86
2022/06/10 15:22:49;;;;;;;4.00;2.75;;;;;;;;;;6231241;23;20170;-85
2022/06/10 15:25:56;;;;;;;4.05;2.80;;;;;;;;;;6229756;23;20167;-86
2022/06/10 15:29:02;;;;;;;4.80;2.60;;;;;;;;;;6231021;23;20182;-86
2022/06/10 15:32:07;;;;;;;6.68;3.00;;;;;;;;;;6230599;23;20190;-86
2022/06/10 15:42:03;;;;;;;8.30;2.90;;;;;;;;;;6251851;23;20175;-86
2022/06/10 15:45:12;;;;;;;7.78;3.08;;;;;;;;;;6235772;23;20202;-84
2022/06/10 15:48:17;;;;;;;4.07;2.78;;;;;;;;;;6240179;23;20175;-87
2022/06/10 15:51:25;;;;;;;5.53;2.90;;;;;;;;;;6249342;23;20175;-85
2022/06/10 15:57:06;;;;;;;4.82;2.75;;;;;;;;;;6249999;23;20162;-87
2022/06/10 15:58:02;;;;;;;7.45;3.85;;;;;;;;;;6247954;23;20197;-86
2022/06/10 16:01:07;;;;;;;4.63;2.60;;;;;;;;;;6233680;23;20245;-85
2022/06/10 16:04:17;;;;;;;13.43;3.30;;;;;;;;;;6234692;23;20197;-87
2022/06/10 16:07:23;;;;;;;11.05;2.67;;;;;;;;;;6231861;23;20210;-87
2022/06/10 16:10:30;;;;;;;5.53;2.90;;;;;;;;;;6250811;23;20178;-88
2022/06/10 16:13:39;;;;;;;4.95;2.60;;;;;;;;;;6250704;23;20174;-88
2022/06/10 16:16:44;;;;;;;3.58;2.50;;;;;;;;;;6233241;23;20179;-88
2022/06/10 16:19:49;;;;;;;9.65;2.47;;;;;;;;;;6249842;23;20205;-86
2022/06/10 16:22:55;;;;;;;4.35;2.58;;;;;;;;;;6233572;23;20179;-86
2022/06/10 16:26:02;;;;;;;6.13;2.78;;;;;;;;;;6232490;23;20208;-86
2022/06/10 16:29:10;;;;;;;5.10;2.60;;;;;;;;;;6252944;23;20345;-86
2022/06/10 16:32:15;;;;;;;5.68;2.40;;;;;;;;;;6233576;23;20573;-86
2022/06/10 16:35:22;;;;;;;4.38;2.80;;;;;;;;;;6251008;23;20420;-85
2022/06/10 16:38:27;;;;;;;7.90;3.15;;;;;;;;;;6234269;23;20170;-86
2022/06/10 16:41:34;;;;;;;3.83;2.20;;;;;;;;;;6233777;23;20189;-87
2022/06/10 16:44:42;;;;;;;5.18;2.20;;;;;;;;;;6231837;23;20190;-88
2022/06/10 16:47:47;;;;;;;4.80;2.40;;;;;;;;;;6231293;23;20174;-86
2022/06/10 16:50:54;;;;;;;2.80;2.35;;;;;;;;;;6250249;23;20232;-88
2022/06/10 16:54:01;;;;;;;4.85;2.30;;;;;;;;;;6255687;23;20169;-88
2022/06/10 16:57:07;;;;;;;7.97;2.60;;;;;;;;;;6230362;23;20471;-88
2022/06/10 17:00:17;;;;;;;6.15;2.47;;;;;;;;;;6231380;23;20174;-87
2022/06/10 17:03:22;;;;;;;7.88;2.75;;;;;;;;;;6231513;23;20245;-89
2022/06/10 17:06:27;;;;;;;4.25;2.20;;;;;;;;;;6230243;23;20206;-88
2022/06/10 17:09:33;;;;;;;5.95;2.30;;;;;;;;;;6232729;23;20400;-87
2022/06/10 17:12:42;;;;;;;4.18;2.50;;;;;;;;;;6231216;23;20179;-85
2022/06/10 17:15:48;;;;;;;6.05;2.50;;;;;;;;;;6265794;23;20151;-86
2022/06/10 17:18:53;;;;;;;5.15;2.72;;;;;;;;;;6250160;23;20173;-86
2022/06/10 17:21:58;;;;;;;4.35;2.60;;;;;;;;;;6230308;23;20170;-87
2022/06/10 17:25:04;;;;;;;5.50;2.65;;;;;;;;;;6230801;23;20197;-88
2022/06/10 17:28:13;;;;;;;4.22;2.40;;;;;;;;;;6249814;23;20417;-87
2022/06/10 17:31:22;;;;;;;4.05;2.88;;;;;;;;;;6248851;23;20174;-87
2022/06/10 17:34:27;;;;;;;5.93;2.60;;;;;;;;;;6241400;23;20241;-86
2022/06/10 17:37:34;;;;;;;4.65;2.45;;;;;;;;;;6249195;23;20170;-87
2022/06/10 17:40:40;;;;;;;8.05;2.50;;;;;;;;;;6230433;23;20185;-87
2022/06/10 17:43:46;;;;;;;8.18;2.88;;;;;;;;;;6230047;23;20190;-88
2022/06/10 17:46:54;;;;;;;6.88;2.78;;;;;;;;;;6230414;23;20174;-87
2022/06/10 17:49:59;;;;;;;4.75;2.60;;;;;;;;;;6229228;23;20305;-87
2022/06/10 17:53:05;;;;;;;5.65;2.83;;;;;;;;;;6230967;23;20236;-87
2022/06/10 17:56:10;;;;;;;6.15;2.70;;;;;;;;;;6228621;23;20174;-87
2022/06/10 17:59:19;;;;;;;5.78;3.20;;;;;;;;;;6249311;23;20213;-87
2022/06/10 18:02:29;;;;;;;3.95;2.80;;;;;;;;;;6231355;23;20465;-85
2022/06/10 18:05:35;;;;;;;3.85;2.60;;;;;;;;;;6228581;23;20226;-87
2022/06/10 18:08:40;;;;;;;7.03;3.10;;;;;;;;;;6249034;23;20170;-87
2022/06/10 18:11:47;;;;;;;7.45;2.95;;;;;;;;;;6229287;23;20494;-88
2022/06/10 18:14:55;;;;;;;5.93;3.10;;;;;;;;;;6230572;23;20182;-87
2022/06/10 18:18:03;;;;;;;7.05;3.65;;;;;;;;;;6231878;23;20568;-88
2022/06/10 18:21:09;;;;;;;5.75;2.72;;;;;;;;;;6230364;23;20209;-87
2022/06/10 18:24:15;;;;;;;5.03;2.60;;;;;;;;;;6231945;23;20198;-87
2022/06/10 18:27:24;;;;;;;4.78;3.10;;;;;;;;;;6230177;23;20241;-87
2022/06/10 18:30:31;;;;;;;6.43;3.03;;;;;;;;;;6248579;23;20577;-87
2022/06/10 18:33:38;;;;;;;5.90;2.67;;;;;;;;;;6251880;23;20416;-86
2022/06/10 18:36:43;;;;;;;4.35;2.70;;;;;;;;;;6248499;23;20264;-85
2022/06/10 18:39:49;;;;;;;7.50;2.78;;;;;;;;;;6218065;23;20233;-87
2022/06/10 18:42:59;;;;;;;8.07;3.25;;;;;;;;;;6218730;23;20298;-87
2022/06/10 18:46:13;;;;;;;5.18;2.85;;;;;;;;;;6218922;23;20199;-87
2022/06/10 18:49:20;;;;;;;6.97;3.35;;;;;;;;;;6220169;23;20171;-86
2022/06/10 18:52:25;;;;;;;5.47;3.10;;;;;;;;;;6221617;23;20249;-87
2022/06/10 18:55:32;;;;;;;7.85;3.15;;;;;;;;;;6219910;23;20179;-87
2022/06/10 18:58:37;;;;;;;8.55;3.30;;;;;;;;;;6219800;23;20191;-87
2022/06/10 19:01:42;;;;;;;7.38;3.63;;;;;;;;;;6217490;23;20234;-87
2022/06/10 19:04:49;;;;;;;10.57;3.63;;;;;;;;;;6217545;23;20277;-87
2022/06/10 19:07:54;;;;;;;5.60;2.90;;;;;;;;;;6218071;23;20386;-87
2022/06/10 19:11:00;;;;;;;6.82;3.22;;;;;;;;;;6218530;23;20186;-88
2022/06/10 19:14:05;;;;;;;8.48;3.30;;;;;;;;;;6219021;23;20171;-86
2022/06/10 19:17:17;;;;;;;8.18;3.25;;;;;;;;;;6215525;23;20214;-85
2022/06/10 19:20:26;;;;;;;6.57;3.05;;;;;;;;;;6201297;23;20199;-88
2022/06/10 19:23:34;;;;;;;7.10;3.30;;;;;;;;;;6218318;23;20203;-87
2022/06/10 19:26:39;;;;;;;6.65;3.22;;;;;;;;;;6218557;23;20241;-86
2022/06/10 19:29:44;;;;;;;9.48;3.42;;;;;;;;;;6218844;23;20174;-87
2022/06/10 19:32:51;;;;;;;6.80;3.40;;;;;;;;;;6220542;23;20234;-88
2022/06/10 19:35:58;;;;;;;11.20;3.50;;;;;;;;;;6218356;23;20203;-87
2022/06/10 19:39:05;;;;;;;7.07;3.15;;;;;;;;;;6230049;23;20198;-87